Sakura — JG5711 — position and weather

sailwx.info

Track history (hours):
 
Tides and Currents Weather Stations Pressure Air Temp Water Temp Dewpoint Dewpoint Depression Visibility Wind Speed Wind Dir Waves Ship Positions

Sakura

Last reported at 2017-Sep-24 08:14 UTC. Time now 2017-Sep-24 14:05 UTC.
Position N 35°27' E 139°40'.

Length 32 m; draft 3.6 m.

Type: Tug. MMSI: 431101178.

Date/timePositionNaut miles runAvg speedWind from/ knotsBaromVisibWave heightAir tempDewpointWater temp
2017-Sep-24 08:14N 35°27' E 139°40'0 0.0
2017-Sep-24 08:00N 35°27' E 139°40'0 0.0
2017-Sep-24 07:30N 35°27' E 139°40'0 0.0
2017-Sep-24 07:00N 35°27' E 139°40'0 0.0
2017-Sep-24 06:30N 35°27' E 139°40'0 0.0
2017-Sep-24 06:01N 35°27' E 139°40'2 4.2
2017-Sep-24 05:30N 35°28' E 139°42'1 1.8
2017-Sep-24 05:00N 35°28' E 139°42'1 1.1
2017-Sep-24 04:30N 35°27' E 139°43'1 2.0
2017-Sep-24 04:00N 35°27' E 139°42'0 0.0
2017-Sep-24 03:30N 35°27' E 139°42'0 0.0
2017-Sep-24 03:00N 35°27' E 139°42'0 0.0
2017-Sep-24 02:30N 35°27' E 139°42'0 0.0
2017-Sep-24 02:00N 35°27' E 139°42'0 0.0
2017-Sep-24 01:30N 35°27' E 139°42'0 0.0
2017-Sep-24 01:00N 35°27' E 139°42'0 0.0
2017-Sep-24 00:30N 35°27' E 139°42'0 0.0
2017-Sep-24 00:00N 35°27' E 139°42'3 6.7
2017-Sep-23 23:30N 35°24' E 139°41'1 1.2
2017-Sep-23 23:01N 35°24' E 139°41'1 2.0
2017-Sep-23 22:30N 35°23' E 139°42'3 6.3
2017-Sep-23 22:00N 35°27' E 139°41'2 3.1
2017-Sep-23 21:30N 35°27' E 139°40'0 0.0
2017-Sep-23 21:00N 35°27' E 139°40'0 0.0
2017-Sep-23 20:30N 35°27' E 139°40'0 0.0
2017-Sep-23 20:00N 35°27' E 139°40'0 0.0
2017-Sep-22 02:00N 35°27' E 139°40'0 0.0
2017-Sep-22 01:30N 35°27' E 139°40'0 0.0
2017-Sep-22 01:00N 35°27' E 139°40'0 0.0
2017-Sep-22 00:30N 35°27' E 139°40'0 0.0
2017-Sep-22 00:00N 35°27' E 139°40'4 7.2
2017-Sep-21 23:30N 35°29' E 139°43'3 5.4
2017-Sep-21 23:00N 35°30' E 139°46'1 1.4
2017-Sep-21 22:30N 35°31' E 139°46'2 4.7
2017-Sep-21 22:00N 35°30' E 139°44'3 6.7
2017-Sep-21 21:30N 35°26' E 139°43'0 0.2
2017-Sep-21 21:00N 35°26' E 139°43'3 6.4
2017-Sep-21 20:30N 35°27' E 139°40'0 0.4
2017-Sep-21 20:00N 35°27' E 139°40'0 0.0
2017-Sep-21 09:23N 35°27' E 139°40'0 0.0
2017-Sep-21 09:00N 35°27' E 139°40'0 0.0
2017-Sep-21 08:30N 35°27' E 139°40'1 1.3
2017-Sep-21 08:01N 35°27' E 139°40'611.3
2017-Sep-21 07:30N 35°29' E 139°47'2 4.7
2017-Sep-21 07:00N 35°30' E 139°44'4 8.4
2017-Sep-21 06:30N 35°27' E 139°40'0 0.3
2017-Sep-21 06:00N 35°27' E 139°39'0 0.0
2017-Sep-21 05:30N 35°27' E 139°39'0 0.1
2017-Sep-21 05:00N 35°27' E 139°39'0 0.2
2017-Sep-21 04:30N 35°27' E 139°39'4 7.6
2017-Sep-21 04:00N 35°24' E 139°41'0 0.6
2017-Sep-21 03:31N 35°24' E 139°41'2 3.3
2017-Sep-21 03:00N 35°22' E 139°41'1 1.3
2017-Sep-21 02:30N 35°23' E 139°41'0 0.0
2017-Sep-21 02:00N 35°23' E 139°41'1 3.0
2017-Sep-21 01:30N 35°24' E 139°41'0 0.6
2017-Sep-21 01:00N 35°24' E 139°41'2 3.6
2017-Sep-21 00:30N 35°22' E 139°41'3 6.1
2017-Sep-21 00:00N 35°25' E 139°42'3 5.1
2017-Sep-20 23:30N 35°27' E 139°40'0 0.0
2017-Sep-20 23:00N 35°27' E 139°40'0 0.0
2017-Sep-19 23:35N 35°27' E 139°40'0 0.1
2017-Sep-19 23:30N 35°27' E 139°40'3 5.3
2017-Sep-19 23:00N 35°25' E 139°42'1 2.7
2017-Sep-19 22:30N 35°24' E 139°41'1 2.0
2017-Sep-19 22:00N 35°23' E 139°42'2 4.3
2017-Sep-19 21:30N 35°25' E 139°42'0 0.0
2017-Sep-19 21:00N 35°25' E 139°42'0 0.0
2017-Sep-19 20:30N 35°25' E 139°42'0 0.0
2017-Sep-19 20:00N 35°25' E 139°42'0 0.0
2017-Sep-19 19:31N 35°25' E 139°42'2 3.3
2017-Sep-19 19:00N 35°24' E 139°41'0 0.0
2017-Sep-19 18:30N 35°24' E 139°41'0 0.8
2017-Sep-19 18:00N 35°24' E 139°41'0 0.0
2017-Sep-19 17:30N 35°24' E 139°41'0 0.0
2017-Sep-19 17:00N 35°24' E 139°41'0 0.0
2017-Sep-19 16:30N 35°24' E 139°41'0 0.0
2017-Sep-19 16:00N 35°24' E 139°41'0 0.0
2017-Sep-19 15:30N 35°24' E 139°41'0 0.4
2017-Sep-19 15:00N 35°24' E 139°41'0 0.0
2017-Sep-19 14:30N 35°24' E 139°41'0 0.0
2017-Sep-19 14:00N 35°24' E 139°41'0 0.4
2017-Sep-19 13:30N 35°24' E 139°41'0 0.0
2017-Sep-19 13:00N 35°24' E 139°41'0 0.0
2017-Sep-19 12:30N 35°24' E 139°41'0 0.0
2017-Sep-19 12:00N 35°24' E 139°41'0 0.4
2017-Sep-19 11:30N 35°24' E 139°41'0 0.9
2017-Sep-19 11:00N 35°24' E 139°41'1 2.1
2017-Sep-19 10:30N 35°23' E 139°41'0 0.6
2017-Sep-19 10:00N 35°23' E 139°41'0 0.0
2017-Sep-19 09:30N 35°23' E 139°41'0 0.0
2017-Sep-19 09:00N 35°23' E 139°41'0 0.0
2017-Sep-19 08:30N 35°23' E 139°41'4 7.5
2017-Sep-19 08:00N 35°27' E 139°40'0 0.4
2017-Sep-19 07:30N 35°26' E 139°40'1 1.6
2017-Sep-19 07:00N 35°27' E 139°40'0 0.0
2017-Sep-19 06:30N 35°27' E 139°40'0 0.0
2017-Sep-19 06:00N 35°27' E 139°40'0 0.0
2017-Sep-19 05:30N 35°27' E 139°40'0 0.0
2017-Sep-19 05:00N 35°27' E 139°40'0 0.0
2017-Sep-19 04:30N 35°27' E 139°40'0 0.0
2017-Sep-19 04:00N 35°27' E 139°40'0 0.0
2017-Sep-19 03:30N 35°27' E 139°40'0 0.0
2017-Sep-19 03:00N 35°27' E 139°40'0 0.0
2017-Sep-19 02:30N 35°27' E 139°40'0 0.0
2017-Sep-19 02:00N 35°27' E 139°40'0 0.0
2017-Sep-19 01:30N 35°27' E 139°40'0 0.0
2017-Sep-19 01:00N 35°27' E 139°40'0 0.0
2017-Sep-19 00:30N 35°27' E 139°40'0 0.0
2017-Sep-19 00:00N 35°27' E 139°40'0 0.0
2017-Sep-18 23:30N 35°27' E 139°40'0 0.0
2017-Sep-18 23:00N 35°27' E 139°40'0 0.0
2017-Sep-18 22:30N 35°27' E 139°40'0 0.0
2017-Sep-18 22:00N 35°27' E 139°40'0 0.0
2017-Sep-18 21:30N 35°27' E 139°40'0 0.0
2017-Sep-18 07:01N 35°27' E 139°40'0 0.0
2017-Sep-18 07:01N 35°27' E 139°40'0 0.0
2017-Sep-18 06:30N 35°27' E 139°40'0 0.0
2017-Sep-18 06:01N 35°27' E 139°40'0 0.0
2017-Sep-18 05:30N 35°27' E 139°40'0 0.0
2017-Sep-18 05:00N 35°27' E 139°40'0 0.0
2017-Sep-18 04:31N 35°27' E 139°40'0 0.0
2017-Sep-18 04:00N 35°27' E 139°40'0 0.0
2017-Sep-18 03:30N 35°27' E 139°40'0 0.0
2017-Sep-18 03:00N 35°27' E 139°40'0 0.0
2017-Sep-18 02:31N 35°27' E 139°40'0 0.0
2017-Sep-18 02:00N 35°27' E 139°40'0 0.0
2017-Sep-18 01:30N 35°27' E 139°40'0 0.0
2017-Sep-18 01:00N 35°27' E 139°40'0 0.0
2017-Sep-18 00:30N 35°27' E 139°40'0 0.0
2017-Sep-18 00:00N 35°27' E 139°40'0 0.0
2017-Sep-17 23:30N 35°27' E 139°40'0 0.0
2017-Sep-17 23:00N 35°27' E 139°40'0 0.0
2017-Sep-17 22:30N 35°27' E 139°40'0 0.0
2017-Sep-17 22:00N 35°27' E 139°40'0 0.0
2017-Sep-17 21:30N 35°27' E 139°40'0 0.0
2017-Sep-17 21:00N 35°27' E 139°40'0 0.0
2017-Sep-17 20:30N 35°27' E 139°40'0 0.0
2017-Sep-17 20:00N 35°27' E 139°40'0 0.0
2017-Sep-17 19:30N 35°27' E 139°40'0 0.0
2017-Sep-17 19:00N 35°27' E 139°40'0 0.0
2017-Sep-17 18:30N 35°27' E 139°40'0 0.0
2017-Sep-17 18:00N 35°27' E 139°40'0 0.0
2017-Sep-17 17:30N 35°27' E 139°40'0 0.0
2017-Sep-17 17:00N 35°27' E 139°40'0 0.0
2017-Sep-17 16:30N 35°27' E 139°40'0 0.0
2017-Sep-17 16:00N 35°27' E 139°40'0 0.0
2017-Sep-17 15:30N 35°27' E 139°40'0 0.0
2017-Sep-17 15:00N 35°27' E 139°40'0 0.0
2017-Sep-17 14:30N 35°27' E 139°40'0 0.0
2017-Sep-17 14:00N 35°27' E 139°40'0 0.0
2017-Sep-17 13:30N 35°27' E 139°40'0 0.0
2017-Sep-17 13:00N 35°27' E 139°40'0 0.0
2017-Sep-17 12:30N 35°27' E 139°40'0 0.0
2017-Sep-17 12:01N 35°27' E 139°40'0 0.0
2017-Sep-17 11:30N 35°27' E 139°40'0 0.0
2017-Sep-17 11:00N 35°27' E 139°40'0 0.0
2017-Sep-17 10:30N 35°27' E 139°40'0 0.0
2017-Sep-17 10:00N 35°27' E 139°40'0 0.0
2017-Sep-17 09:30N 35°27' E 139°40'0 0.0
2017-Sep-17 09:00N 35°27' E 139°40'1 1.7
2017-Sep-17 08:30N 35°27' E 139°41'3 6.4
2017-Sep-17 08:01N 35°26' E 139°44'1 1.3
2017-Sep-17 07:31N 35°26' E 139°45'4 8.3
2017-Sep-17 07:01N 35°30' E 139°47'1 2.8
2017-Sep-17 06:30N 35°29' E 139°45'5 9.8
2017-Sep-17 06:00N 35°27' E 139°40'1 1.6
2017-Sep-17 05:30N 35°28' E 139°40'0 0.0
2017-Sep-17 05:00N 35°28' E 139°40'0 0.0
2017-Sep-17 04:30N 35°28' E 139°40'0 0.0
2017-Sep-17 04:01N 35°28' E 139°40'0 0.0
2017-Sep-17 03:30N 35°28' E 139°40'0 0.0
2017-Sep-17 03:01N 35°28' E 139°40'0 0.0
2017-Sep-17 02:30N 35°28' E 139°40'0 0.0
2017-Sep-17 02:00N 35°28' E 139°40'0 0.0
2017-Sep-17 01:30N 35°28' E 139°40'0 0.0
2017-Sep-17 01:01N 35°28' E 139°40'0 0.0
2017-Sep-17 00:31N 35°28' E 139°40'1 2.8
2017-Sep-17 00:00N 35°27' E 139°42'510.9
2017-Sep-16 23:30N 35°30' E 139°48'1 2.6
2017-Sep-16 23:00N 35°31' E 139°46'1 2.9
2017-Sep-16 22:30N 35°29' E 139°47'0 0.0
2017-Sep-16 22:00N 35°29' E 139°47'1 1.8
2017-Sep-16 21:30N 35°30' E 139°47'1 2.8
2017-Sep-16 21:01N 35°31' E 139°46'5 9.3
2017-Sep-16 20:30N 35°28' E 139°41'2 4.1
2017-Sep-16 20:00N 35°27' E 139°40'0 0.0
2017-Sep-16 19:30N 35°27' E 139°40'0 0.0
2017-Sep-16 19:01N 35°27' E 139°40'0 0.0
2017-Sep-16 08:07N 35°27' E 139°40'0 0.0
2017-Sep-16 08:00N 35°27' E 139°40'0 0.0
2017-Sep-16 07:30N 35°27' E 139°40'0 0.8
2017-Sep-16 07:01N 35°27' E 139°40'3 5.3
2017-Sep-16 06:30N 35°28' E 139°43'0 0.1
2017-Sep-16 06:00N 35°28' E 139°43'3 6.3
2017-Sep-16 05:31N 35°27' E 139°40'0 0.0
2017-Sep-16 05:01N 35°27' E 139°40'0 0.0
2017-Sep-16 04:30N 35°27' E 139°40'0 0.0
2017-Sep-16 04:00N 35°27' E 139°40'0 0.0
2017-Sep-16 03:30N 35°27' E 139°40'0 0.0
2017-Sep-16 03:00N 35°27' E 139°40'0 0.0
2017-Sep-16 02:30N 35°27' E 139°40'0 0.0
2017-Sep-16 02:01N 35°27' E 139°40'0 0.0
2017-Sep-16 01:30N 35°27' E 139°40'0 0.0
2017-Sep-16 01:00N 35°27' E 139°40'0 0.0
2017-Sep-16 00:30N 35°27' E 139°40'0 0.0
2017-Sep-16 00:01N 35°27' E 139°40'0 0.0
2017-Sep-15 23:30N 35°27' E 139°40'0 0.0
2017-Sep-15 23:01N 35°27' E 139°40'2 4.3
2017-Sep-15 22:31N 35°28' E 139°42'0 0.2
2017-Sep-15 22:01N 35°28' E 139°42'1 2.0
2017-Sep-15 21:30N 35°27' E 139°43'1 2.1
2017-Sep-15 21:00N 35°26' E 139°43'1 2.3
2017-Sep-15 20:30N 35°27' E 139°42'0 0.0
2017-Sep-15 20:00N 35°27' E 139°42'0 0.0
2017-Sep-15 19:31N 35°27' E 139°42'0 0.0
2017-Sep-15 19:00N 35°27' E 139°42'0 0.0
2017-Sep-15 18:30N 35°27' E 139°42'0 0.0
2017-Sep-15 18:01N 35°27' E 139°42'0 0.0
2017-Sep-15 17:31N 35°27' E 139°42'0 0.0
2017-Sep-15 17:00N 35°27' E 139°42'0 0.0
2017-Sep-15 16:30N 35°27' E 139°42'0 0.1
2017-Sep-15 16:01N 35°27' E 139°42'0 0.0
2017-Sep-15 15:30N 35°27' E 139°42'0 0.0
2017-Sep-15 15:00N 35°27' E 139°42'0 0.0
2017-Sep-15 14:30N 35°27' E 139°42'0 0.0
2017-Sep-15 14:01N 35°27' E 139°42'0 0.0
2017-Sep-15 13:31N 35°27' E 139°42'0 0.0
2017-Sep-15 13:00N 35°27' E 139°42'1 2.6
2017-Sep-15 12:31N 35°26' E 139°41'1 2.4
2017-Sep-15 12:00N 35°27' E 139°40'0 0.0
2017-Sep-15 11:30N 35°27' E 139°40'0 0.0
2017-Sep-15 11:01N 35°27' E 139°40'2 3.4
2017-Sep-15 10:30N 35°28' E 139°42'0 0.5
2017-Sep-15 10:01N 35°28' E 139°42'1 3.0
2017-Sep-15 09:30N 35°27' E 139°43'1 2.6
2017-Sep-15 09:01N 35°27' E 139°45'1 2.5
2017-Sep-15 08:31N 35°28' E 139°44'0 0.0
2017-Sep-15 08:01N 35°28' E 139°44'1 1.3
2017-Sep-15 07:31N 35°28' E 139°45'2 3.8
2017-Sep-15 07:00N 35°30' E 139°46'1 1.6
2017-Sep-15 06:31N 35°30' E 139°47'5 9.6
2017-Sep-15 06:00N 35°26' E 139°44'2 4.9
2017-Sep-15 05:31N 35°25' E 139°41'0 0.2
2017-Sep-15 05:00N 35°25' E 139°41'2 4.0
2017-Sep-15 04:30N 35°27' E 139°40'0 0.4
2017-Sep-15 04:00N 35°27' E 139°40'0 0.0
2017-Sep-15 03:30N 35°27' E 139°40'0 0.0
2017-Sep-15 03:00N 35°27' E 139°40'0 0.0
2017-Sep-15 02:30N 35°27' E 139°40'0 0.0
2017-Sep-15 02:00N 35°27' E 139°40'0 0.0
2017-Sep-15 01:30N 35°27' E 139°40'5 9.8
2017-Sep-15 01:01N 35°30' E 139°44'1 1.1
2017-Sep-15 00:30N 35°30' E 139°45'1 1.8
2017-Sep-15 00:00N 35°30' E 139°44'4 8.5
2017-Sep-14 23:30N 35°27' E 139°40'0 0.6
2017-Sep-14 23:00N 35°27' E 139°40'0 0.0
2017-Sep-14 22:30N 35°27' E 139°40'0 0.0
2017-Sep-14 22:00N 35°27' E 139°40'0 0.0
2017-Sep-14 21:30N 35°27' E 139°40'0 0.0
2017-Sep-14 21:00N 35°27' E 139°40'0 0.0
2017-Sep-14 20:30N 35°27' E 139°40'0 0.0
2017-Sep-14 20:00N 35°27' E 139°40'0 0.0
2017-Sep-14 19:30N 35°27' E 139°40'0 0.0
2017-Sep-14 19:00N 35°27' E 139°40'0 0.0
2017-Sep-14 18:30N 35°27' E 139°40'0 0.0
2017-Sep-14 18:00N 35°27' E 139°40'0 0.0
2017-Sep-14 17:30N 35°27' E 139°40'0 0.0
2017-Sep-14 17:00N 35°27' E 139°40'0 0.0
2017-Sep-14 16:30N 35°27' E 139°40'0 0.0
2017-Sep-14 16:00N 35°27' E 139°40'0 0.0
2017-Sep-14 15:30N 35°27' E 139°40'0 0.0
2017-Sep-14 15:00N 35°27' E 139°40'0 0.0
2017-Sep-14 14:30N 35°27' E 139°40'0 0.0
2017-Sep-14 14:00N 35°27' E 139°40'0 0.0
2017-Sep-14 13:30N 35°27' E 139°40'0 0.0
2017-Sep-14 13:00N 35°27' E 139°40'0 0.0
2017-Sep-14 12:30N 35°27' E 139°40'0 0.0
2017-Sep-14 12:00N 35°27' E 139°40'0 0.0
2017-Sep-14 11:30N 35°27' E 139°40'0 0.0
2017-Sep-14 11:00N 35°27' E 139°40'0 0.0
2017-Sep-14 10:30N 35°27' E 139°40'0 0.0
2017-Sep-14 10:01N 35°27' E 139°40'611.5
2017-Sep-14 09:31N 35°29' E 139°46'2 3.4
2017-Sep-14 09:01N 35°30' E 139°44'1 1.8
2017-Sep-14 08:30N 35°30' E 139°43'  
Track history (hours):
 
Tides and Currents Weather Stations Pressure Air Temp Water Temp Dewpoint Dewpoint Depression Visibility Wind Speed Wind Dir Waves Ship Positions

Sakura

Last reported at 2017-Sep-24 08:14 UTC. Time now 2017-Sep-24 14:05 UTC.
Position N 35°27' E 139°40'.

Length 32 m; draft 3.6 m.

Type: Tug. MMSI: 431101178.

Date/timePositionNaut miles runAvg speedWind from/ knotsBaromVisibWave heightAir tempDewpointWater temp
2017-Sep-24 08:14N 35°27' E 139°40'0 0.0
2017-Sep-24 08:00N 35°27' E 139°40'0 0.0
2017-Sep-24 07:30N 35°27' E 139°40'0 0.0
2017-Sep-24 07:00N 35°27' E 139°40'0 0.0
2017-Sep-24 06:30N 35°27' E 139°40'0 0.0
2017-Sep-24 06:01N 35°27' E 139°40'2 4.2
2017-Sep-24 05:30N 35°28' E 139°42'1 1.8
2017-Sep-24 05:00N 35°28' E 139°42'1 1.1
2017-Sep-24 04:30N 35°27' E 139°43'1 2.0
2017-Sep-24 04:00N 35°27' E 139°42'0 0.0
2017-Sep-24 03:30N 35°27' E 139°42'0 0.0
2017-Sep-24 03:00N 35°27' E 139°42'0 0.0
2017-Sep-24 02:30N 35°27' E 139°42'0 0.0
2017-Sep-24 02:00N 35°27' E 139°42'0 0.0
2017-Sep-24 01:30N 35°27' E 139°42'0 0.0
2017-Sep-24 01:00N 35°27' E 139°42'0 0.0
2017-Sep-24 00:30N 35°27' E 139°42'0 0.0
2017-Sep-24 00:00N 35°27' E 139°42'3 6.7
2017-Sep-23 23:30N 35°24' E 139°41'1 1.2
2017-Sep-23 23:01N 35°24' E 139°41'1 2.0
2017-Sep-23 22:30N 35°23' E 139°42'3 6.3
2017-Sep-23 22:00N 35°27' E 139°41'2 3.1
2017-Sep-23 21:30N 35°27' E 139°40'0 0.0
2017-Sep-23 21:00N 35°27' E 139°40'0 0.0
2017-Sep-23 20:30N 35°27' E 139°40'0 0.0
2017-Sep-23 20:00N 35°27' E 139°40'0 0.0
2017-Sep-22 02:00N 35°27' E 139°40'0 0.0
2017-Sep-22 01:30N 35°27' E 139°40'0 0.0
2017-Sep-22 01:00N 35°27' E 139°40'0 0.0
2017-Sep-22 00:30N 35°27' E 139°40'0 0.0
2017-Sep-22 00:00N 35°27' E 139°40'4 7.2
2017-Sep-21 23:30N 35°29' E 139°43'3 5.4
2017-Sep-21 23:00N 35°30' E 139°46'1 1.4
2017-Sep-21 22:30N 35°31' E 139°46'2 4.7
2017-Sep-21 22:00N 35°30' E 139°44'3 6.7
2017-Sep-21 21:30N 35°26' E 139°43'0 0.2
2017-Sep-21 21:00N 35°26' E 139°43'3 6.4
2017-Sep-21 20:30N 35°27' E 139°40'0 0.4
2017-Sep-21 20:00N 35°27' E 139°40'0 0.0
2017-Sep-21 09:23N 35°27' E 139°40'0 0.0
2017-Sep-21 09:00N 35°27' E 139°40'0 0.0
2017-Sep-21 08:30N 35°27' E 139°40'1 1.3
2017-Sep-21 08:01N 35°27' E 139°40'611.3
2017-Sep-21 07:30N 35°29' E 139°47'2 4.7
2017-Sep-21 07:00N 35°30' E 139°44'4 8.4
2017-Sep-21 06:30N 35°27' E 139°40'0 0.3
2017-Sep-21 06:00N 35°27' E 139°39'0 0.0
2017-Sep-21 05:30N 35°27' E 139°39'0 0.1
2017-Sep-21 05:00N 35°27' E 139°39'0 0.2
2017-Sep-21 04:30N 35°27' E 139°39'4 7.6
2017-Sep-21 04:00N 35°24' E 139°41'0 0.6
2017-Sep-21 03:31N 35°24' E 139°41'2 3.3
2017-Sep-21 03:00N 35°22' E 139°41'1 1.3
2017-Sep-21 02:30N 35°23' E 139°41'0 0.0
2017-Sep-21 02:00N 35°23' E 139°41'1 3.0
2017-Sep-21 01:30N 35°24' E 139°41'0 0.6
2017-Sep-21 01:00N 35°24' E 139°41'2 3.6
2017-Sep-21 00:30N 35°22' E 139°41'3 6.1
2017-Sep-21 00:00N 35°25' E 139°42'3 5.1
2017-Sep-20 23:30N 35°27' E 139°40'0 0.0
2017-Sep-20 23:00N 35°27' E 139°40'0 0.0
2017-Sep-19 23:35N 35°27' E 139°40'0 0.1
2017-Sep-19 23:30N 35°27' E 139°40'3 5.3
2017-Sep-19 23:00N 35°25' E 139°42'1 2.7
2017-Sep-19 22:30N 35°24' E 139°41'1 2.0
2017-Sep-19 22:00N 35°23' E 139°42'2 4.3
2017-Sep-19 21:30N 35°25' E 139°42'0 0.0
2017-Sep-19 21:00N 35°25' E 139°42'0 0.0
2017-Sep-19 20:30N 35°25' E 139°42'0 0.0
2017-Sep-19 20:00N 35°25' E 139°42'0 0.0
2017-Sep-19 19:31N 35°25' E 139°42'2 3.3
2017-Sep-19 19:00N 35°24' E 139°41'0 0.0
2017-Sep-19 18:30N 35°24' E 139°41'0 0.8
2017-Sep-19 18:00N 35°24' E 139°41'0 0.0
2017-Sep-19 17:30N 35°24' E 139°41'0 0.0
2017-Sep-19 17:00N 35°24' E 139°41'0 0.0
2017-Sep-19 16:30N 35°24' E 139°41'0 0.0
2017-Sep-19 16:00N 35°24' E 139°41'0 0.0
2017-Sep-19 15:30N 35°24' E 139°41'0 0.4
2017-Sep-19 15:00N 35°24' E 139°41'0 0.0
2017-Sep-19 14:30N 35°24' E 139°41'0 0.0
2017-Sep-19 14:00N 35°24' E 139°41'0 0.4
2017-Sep-19 13:30N 35°24' E 139°41'0 0.0
2017-Sep-19 13:00N 35°24' E 139°41'0 0.0
2017-Sep-19 12:30N 35°24' E 139°41'0 0.0
2017-Sep-19 12:00N 35°24' E 139°41'0 0.4
2017-Sep-19 11:30N 35°24' E 139°41'0 0.9
2017-Sep-19 11:00N 35°24' E 139°41'1 2.1
2017-Sep-19 10:30N 35°23' E 139°41'0 0.6
2017-Sep-19 10:00N 35°23' E 139°41'0 0.0
2017-Sep-19 09:30N 35°23' E 139°41'0 0.0
2017-Sep-19 09:00N 35°23' E 139°41'0 0.0
2017-Sep-19 08:30N 35°23' E 139°41'4 7.5
2017-Sep-19 08:00N 35°27' E 139°40'0 0.4
2017-Sep-19 07:30N 35°26' E 139°40'1 1.6
2017-Sep-19 07:00N 35°27' E 139°40'0 0.0
2017-Sep-19 06:30N 35°27' E 139°40'0 0.0
2017-Sep-19 06:00N 35°27' E 139°40'0 0.0
2017-Sep-19 05:30N 35°27' E 139°40'0 0.0
2017-Sep-19 05:00N 35°27' E 139°40'0 0.0
2017-Sep-19 04:30N 35°27' E 139°40'0 0.0
2017-Sep-19 04:00N 35°27' E 139°40'0 0.0
2017-Sep-19 03:30N 35°27' E 139°40'0 0.0
2017-Sep-19 03:00N 35°27' E 139°40'0 0.0
2017-Sep-19 02:30N 35°27' E 139°40'0 0.0
2017-Sep-19 02:00N 35°27' E 139°40'0 0.0
2017-Sep-19 01:30N 35°27' E 139°40'0 0.0
2017-Sep-19 01:00N 35°27' E 139°40'0 0.0
2017-Sep-19 00:30N 35°27' E 139°40'0 0.0
2017-Sep-19 00:00N 35°27' E 139°40'0 0.0
2017-Sep-18 23:30N 35°27' E 139°40'0 0.0
2017-Sep-18 23:00N 35°27' E 139°40'0 0.0
2017-Sep-18 22:30N 35°27' E 139°40'0 0.0
2017-Sep-18 22:00N 35°27' E 139°40'0 0.0
2017-Sep-18 21:30N 35°27' E 139°40'0 0.0
2017-Sep-18 07:01N 35°27' E 139°40'0 0.0
2017-Sep-18 07:01N 35°27' E 139°40'0 0.0
2017-Sep-18 06:30N 35°27' E 139°40'0 0.0
2017-Sep-18 06:01N 35°27' E 139°40'0 0.0
2017-Sep-18 05:30N 35°27' E 139°40'0 0.0
2017-Sep-18 05:00N 35°27' E 139°40'0 0.0
2017-Sep-18 04:31N 35°27' E 139°40'0 0.0
2017-Sep-18 04:00N 35°27' E 139°40'0 0.0
2017-Sep-18 03:30N 35°27' E 139°40'0 0.0
2017-Sep-18 03:00N 35°27' E 139°40'0 0.0
2017-Sep-18 02:31N 35°27' E 139°40'0 0.0
2017-Sep-18 02:00N 35°27' E 139°40'0 0.0
2017-Sep-18 01:30N 35°27' E 139°40'0 0.0
2017-Sep-18 01:00N 35°27' E 139°40'0 0.0
2017-Sep-18 00:30N 35°27' E 139°40'0 0.0
2017-Sep-18 00:00N 35°27' E 139°40'0 0.0
2017-Sep-17 23:30N 35°27' E 139°40'0 0.0
2017-Sep-17 23:00N 35°27' E 139°40'0 0.0
2017-Sep-17 22:30N 35°27' E 139°40'0 0.0
2017-Sep-17 22:00N 35°27' E 139°40'0 0.0
2017-Sep-17 21:30N 35°27' E 139°40'0 0.0
2017-Sep-17 21:00N 35°27' E 139°40'0 0.0
2017-Sep-17 20:30N 35°27' E 139°40'0 0.0
2017-Sep-17 20:00N 35°27' E 139°40'0 0.0
2017-Sep-17 19:30N 35°27' E 139°40'0 0.0
2017-Sep-17 19:00N 35°27' E 139°40'0 0.0
2017-Sep-17 18:30N 35°27' E 139°40'0 0.0
2017-Sep-17 18:00N 35°27' E 139°40'0 0.0
2017-Sep-17 17:30N 35°27' E 139°40'0 0.0
2017-Sep-17 17:00N 35°27' E 139°40'0 0.0
2017-Sep-17 16:30N 35°27' E 139°40'0 0.0
2017-Sep-17 16:00N 35°27' E 139°40'0 0.0
2017-Sep-17 15:30N 35°27' E 139°40'0 0.0
2017-Sep-17 15:00N 35°27' E 139°40'0 0.0
2017-Sep-17 14:30N 35°27' E 139°40'0 0.0
2017-Sep-17 14:00N 35°27' E 139°40'0 0.0
2017-Sep-17 13:30N 35°27' E 139°40'0 0.0
2017-Sep-17 13:00N 35°27' E 139°40'0 0.0
2017-Sep-17 12:30N 35°27' E 139°40'0 0.0
2017-Sep-17 12:01N 35°27' E 139°40'0 0.0
2017-Sep-17 11:30N 35°27' E 139°40'0 0.0
2017-Sep-17 11:00N 35°27' E 139°40'0 0.0
2017-Sep-17 10:30N 35°27' E 139°40'0 0.0
2017-Sep-17 10:00N 35°27' E 139°40'0 0.0
2017-Sep-17 09:30N 35°27' E 139°40'0 0.0
2017-Sep-17 09:00N 35°27' E 139°40'1 1.7
2017-Sep-17 08:30N 35°27' E 139°41'3 6.4
2017-Sep-17 08:01N 35°26' E 139°44'1 1.3
2017-Sep-17 07:31N 35°26' E 139°45'4 8.3
2017-Sep-17 07:01N 35°30' E 139°47'1 2.8
2017-Sep-17 06:30N 35°29' E 139°45'5 9.8
2017-Sep-17 06:00N 35°27' E 139°40'1 1.6
2017-Sep-17 05:30N 35°28' E 139°40'0 0.0
2017-Sep-17 05:00N 35°28' E 139°40'0 0.0
2017-Sep-17 04:30N 35°28' E 139°40'0 0.0
2017-Sep-17 04:01N 35°28' E 139°40'0 0.0
2017-Sep-17 03:30N 35°28' E 139°40'0 0.0
2017-Sep-17 03:01N 35°28' E 139°40'0 0.0
2017-Sep-17 02:30N 35°28' E 139°40'0 0.0
2017-Sep-17 02:00N 35°28' E 139°40'0 0.0
2017-Sep-17 01:30N 35°28' E 139°40'0 0.0
2017-Sep-17 01:01N 35°28' E 139°40'0 0.0
2017-Sep-17 00:31N 35°28' E 139°40'1 2.8
2017-Sep-17 00:00N 35°27' E 139°42'510.9
2017-Sep-16 23:30N 35°30' E 139°48'1 2.6
2017-Sep-16 23:00N 35°31' E 139°46'1 2.9
2017-Sep-16 22:30N 35°29' E 139°47'0 0.0
2017-Sep-16 22:00N 35°29' E 139°47'1 1.8
2017-Sep-16 21:30N 35°30' E 139°47'1 2.8
2017-Sep-16 21:01N 35°31' E 139°46'5 9.3
2017-Sep-16 20:30N 35°28' E 139°41'2 4.1
2017-Sep-16 20:00N 35°27' E 139°40'0 0.0
2017-Sep-16 19:30N 35°27' E 139°40'0 0.0
2017-Sep-16 19:01N 35°27' E 139°40'0 0.0
2017-Sep-16 08:07N 35°27' E 139°40'0 0.0
2017-Sep-16 08:00N 35°27' E 139°40'0 0.0
2017-Sep-16 07:30N 35°27' E 139°40'0 0.8
2017-Sep-16 07:01N 35°27' E 139°40'3 5.3
2017-Sep-16 06:30N 35°28' E 139°43'0 0.1
2017-Sep-16 06:00N 35°28' E 139°43'3 6.3
2017-Sep-16 05:31N 35°27' E 139°40'0 0.0
2017-Sep-16 05:01N 35°27' E 139°40'0 0.0
2017-Sep-16 04:30N 35°27' E 139°40'0 0.0
2017-Sep-16 04:00N 35°27' E 139°40'0 0.0
2017-Sep-16 03:30N 35°27' E 139°40'0 0.0
2017-Sep-16 03:00N 35°27' E 139°40'0 0.0
2017-Sep-16 02:30N 35°27' E 139°40'0 0.0
2017-Sep-16 02:01N 35°27' E 139°40'0 0.0
2017-Sep-16 01:30N 35°27' E 139°40'0 0.0
2017-Sep-16 01:00N 35°27' E 139°40'0 0.0
2017-Sep-16 00:30N 35°27' E 139°40'0 0.0
2017-Sep-16 00:01N 35°27' E 139°40'0 0.0
2017-Sep-15 23:30N 35°27' E 139°40'0 0.0
2017-Sep-15 23:01N 35°27' E 139°40'2 4.3
2017-Sep-15 22:31N 35°28' E 139°42'0 0.2
2017-Sep-15 22:01N 35°28' E 139°42'1 2.0
2017-Sep-15 21:30N 35°27' E 139°43'1 2.1
2017-Sep-15 21:00N 35°26' E 139°43'1 2.3
2017-Sep-15 20:30N 35°27' E 139°42'0 0.0
2017-Sep-15 20:00N 35°27' E 139°42'0 0.0
2017-Sep-15 19:31N 35°27' E 139°42'0 0.0
2017-Sep-15 19:00N 35°27' E 139°42'0 0.0
2017-Sep-15 18:30N 35°27' E 139°42'0 0.0
2017-Sep-15 18:01N 35°27' E 139°42'0 0.0
2017-Sep-15 17:31N 35°27' E 139°42'0 0.0
2017-Sep-15 17:00N 35°27' E 139°42'0 0.0
2017-Sep-15 16:30N 35°27' E 139°42'0 0.1
2017-Sep-15 16:01N 35°27' E 139°42'0 0.0
2017-Sep-15 15:30N 35°27' E 139°42'0 0.0
2017-Sep-15 15:00N 35°27' E 139°42'0 0.0
2017-Sep-15 14:30N 35°27' E 139°42'0 0.0
2017-Sep-15 14:01N 35°27' E 139°42'0 0.0
2017-Sep-15 13:31N 35°27' E 139°42'0 0.0
2017-Sep-15 13:00N 35°27' E 139°42'1 2.6
2017-Sep-15 12:31N 35°26' E 139°41'1 2.4
2017-Sep-15 12:00N 35°27' E 139°40'0 0.0
2017-Sep-15 11:30N 35°27' E 139°40'0 0.0
2017-Sep-15 11:01N 35°27' E 139°40'2 3.4
2017-Sep-15 10:30N 35°28' E 139°42'0 0.5
2017-Sep-15 10:01N 35°28' E 139°42'1 3.0
2017-Sep-15 09:30N 35°27' E 139°43'1 2.6
2017-Sep-15 09:01N 35°27' E 139°45'1 2.5
2017-Sep-15 08:31N 35°28' E 139°44'0 0.0
2017-Sep-15 08:01N 35°28' E 139°44'1 1.3
2017-Sep-15 07:31N 35°28' E 139°45'2 3.8
2017-Sep-15 07:00N 35°30' E 139°46'1 1.6
2017-Sep-15 06:31N 35°30' E 139°47'5 9.6
2017-Sep-15 06:00N 35°26' E 139°44'2 4.9
2017-Sep-15 05:31N 35°25' E 139°41'0 0.2
2017-Sep-15 05:00N 35°25' E 139°41'2 4.0
2017-Sep-15 04:30N 35°27' E 139°40'0 0.4
2017-Sep-15 04:00N 35°27' E 139°40'0 0.0
2017-Sep-15 03:30N 35°27' E 139°40'0 0.0
2017-Sep-15 03:00N 35°27' E 139°40'0 0.0
2017-Sep-15 02:30N 35°27' E 139°40'0 0.0
2017-Sep-15 02:00N 35°27' E 139°40'0 0.0
2017-Sep-15 01:30N 35°27' E 139°40'5 9.8
2017-Sep-15 01:01N 35°30' E 139°44'1 1.1
2017-Sep-15 00:30N 35°30' E 139°45'1 1.8
2017-Sep-15 00:00N 35°30' E 139°44'4 8.5
2017-Sep-14 23:30N 35°27' E 139°40'0 0.6
2017-Sep-14 23:00N 35°27' E 139°40'0 0.0
2017-Sep-14 22:30N 35°27' E 139°40'0 0.0
2017-Sep-14 22:00N 35°27' E 139°40'0 0.0
2017-Sep-14 21:30N 35°27' E 139°40'0 0.0
2017-Sep-14 21:00N 35°27' E 139°40'0 0.0
2017-Sep-14 20:30N 35°27' E 139°40'0 0.0
2017-Sep-14 20:00N 35°27' E 139°40'0 0.0
2017-Sep-14 19:30N 35°27' E 139°40'0 0.0
2017-Sep-14 19:00N 35°27' E 139°40'0 0.0
2017-Sep-14 18:30N 35°27' E 139°40'0 0.0
2017-Sep-14 18:00N 35°27' E 139°40'0 0.0
2017-Sep-14 17:30N 35°27' E 139°40'0 0.0
2017-Sep-14 17:00N 35°27' E 139°40'0 0.0
2017-Sep-14 16:30N 35°27' E 139°40'0 0.0
2017-Sep-14 16:00N 35°27' E 139°40'0 0.0
2017-Sep-14 15:30N 35°27' E 139°40'0 0.0
2017-Sep-14 15:00N 35°27' E 139°40'0 0.0
2017-Sep-14 14:30N 35°27' E 139°40'0 0.0
2017-Sep-14 14:00N 35°27' E 139°40'0 0.0
2017-Sep-14 13:30N 35°27' E 139°40'0 0.0
2017-Sep-14 13:00N 35°27' E 139°40'0 0.0
2017-Sep-14 12:30N 35°27' E 139°40'0 0.0
2017-Sep-14 12:00N 35°27' E 139°40'0 0.0
2017-Sep-14 11:30N 35°27' E 139°40'0 0.0
2017-Sep-14 11:00N 35°27' E 139°40'0 0.0
2017-Sep-14 10:30N 35°27' E 139°40'0 0.0
2017-Sep-14 10:01N 35°27' E 139°40'611.5
2017-Sep-14 09:31N 35°29' E 139°46'2 3.4
2017-Sep-14 09:01N 35°30' E 139°44'1 1.8
2017-Sep-14 08:30N 35°30' E 139°43'  

Dump ship's entire track history